Time;durP1;ratioP1;P1;durP2;ratioP2;P2;SDS_P1;SDS_P2;PMS_P1;PMS_P2;Temp;Humidity;BMP_temperature;BMP_pressure;BME280_temperature;BME280_humidity;BME280_pressure;Samples;Min_cycle;Max_cycle;Signal;HPM_P1;HPM_P2
2024/01/26 00:01:29;;;;;;;24.13;9.68;;;;;;;6.82;100.00;102086.28;5044208;28;20131;-75
2024/01/26 00:04:17;;;;;;;21.10;9.88;;;;;;;6.88;100.00;102078.34;5047056;28;20048;-75
2024/01/26 00:07:05;;;;;;;24.90;8.98;;;;;;;6.96;100.00;102080.00;5017765;28;20048;-75
2024/01/26 00:09:50;;;;;;;25.95;9.93;;;;;;;6.99;100.00;102074.69;5049527;28;20036;-75
2024/01/26 00:12:36;;;;;;;23.00;8.98;;;;;;;7.01;100.00;102073.81;5037218;28;20044;-75
2024/01/26 00:15:22;;;;;;;23.38;10.00;;;;;;;7.03;100.00;102065.88;5045951;28;20514;-74
2024/01/26 00:18:08;;;;;;;21.77;9.25;;;;;;;7.05;100.00;102064.09;5048140;28;20046;-75
2024/01/26 00:20:53;;;;;;;22.38;9.35;;;;;;;7.09;100.00;102067.56;5044053;28;20041;-75
2024/01/26 00:23:39;;;;;;;27.95;10.02;;;;;;;7.11;100.00;102074.56;5044755;28;20090;-75
2024/01/26 00:26:25;;;;;;;20.67;8.52;;;;;;;7.15;100.00;102070.13;5045727;28;20032;-75
2024/01/26 00:29:11;;;;;;;21.50;8.82;;;;;;;7.16;100.00;102067.50;5049216;28;20045;-74
2024/01/26 00:31:56;;;;;;;23.05;9.15;;;;;;;7.19;100.00;102061.28;5046735;28;20036;-75
2024/01/26 00:34:45;;;;;;;21.30;8.13;;;;;;;7.19;100.00;102062.19;5050990;28;20037;-75
2024/01/26 00:37:30;;;;;;;19.90;8.10;;;;;;;7.22;100.00;102068.28;5031242;28;20043;-75
2024/01/26 00:40:16;;;;;;;16.50;7.45;;;;;;;7.24;100.00;102077.94;5033147;28;20151;-76
2024/01/26 00:43:04;;;;;;;20.42;7.85;;;;;;;7.24;100.00;102070.03;5046868;28;20041;-75
2024/01/26 00:45:50;;;;;;;19.38;8.00;;;;;;;7.27;100.00;102061.22;5039609;28;22265;-75
2024/01/26 00:48:36;;;;;;;22.15;8.20;;;;;;;7.28;100.00;102049.78;5049496;28;20037;-75
2024/01/26 00:51:23;;;;;;;16.92;7.45;;;;;;;7.28;100.00;102040.13;5048445;28;20094;-75
2024/01/26 00:54:08;;;;;;;18.35;6.88;;;;;;;7.28;100.00;102037.50;5048521;28;20045;-76
2024/01/26 00:56:54;;;;;;;24.45;8.05;;;;;;;7.29;100.00;102041.88;5049855;28;20040;-75
2024/01/26 00:59:43;;;;;;;18.42;7.70;;;;;;;7.29;100.00;102040.97;5046019;28;20044;-75
2024/01/26 01:02:29;;;;;;;16.40;6.95;;;;;;;7.28;100.00;102031.34;5047907;28;20037;-75
2024/01/26 01:05:17;;;;;;;16.45;7.10;;;;;;;7.29;100.00;102030.44;5035099;28;20044;-75
2024/01/26 01:08:04;;;;;;;18.90;7.35;;;;;;;7.32;100.00;102019.88;5048626;28;20032;-75
2024/01/26 01:10:50;;;;;;;15.82;7.07;;;;;;;7.31;100.00;102021.63;5047390;28;20033;-75
2024/01/26 01:13:36;;;;;;;15.98;7.28;;;;;;;7.31;100.00;102015.50;5053330;28;20041;-75
2024/01/26 01:16:22;;;;;;;12.45;6.57;;;;;;;7.30;100.00;102006.72;5036620;28;20108;-75
2024/01/26 01:19:10;;;;;;;18.02;7.75;;;;;;;7.30;100.00;102008.50;5047465;28;20041;-74
2024/01/26 01:21:56;;;;;;;17.60;7.00;;;;;;;7.29;100.00;102006.75;5035137;28;20083;-75
2024/01/26 01:24:42;;;;;;;18.55;7.10;;;;;;;7.29;100.00;101994.44;5041058;28;20037;-74
2024/01/26 01:27:27;;;;;;;14.05;6.70;;;;;;;7.30;100.00;101997.97;5051611;28;20044;-74
2024/01/26 01:30:13;;;;;;;16.13;6.70;;;;;;;7.31;100.00;101986.53;5023653;28;20033;-74
2024/01/26 01:32:59;;;;;;;20.35;7.85;;;;;;;7.29;100.00;101989.19;5053899;28;20076;-74
2024/01/26 01:35:45;;;;;;;19.17;8.60;;;;;;;7.28;100.00;101982.16;5051011;28;20062;-75
2024/01/26 01:38:31;;;;;;;18.00;8.40;;;;;;;7.29;100.00;101990.94;5050755;28;20040;-75
2024/01/26 01:41:16;;;;;;;14.82;7.57;;;;;;;7.28;100.00;101981.28;5028207;28;20057;-74
2024/01/26 01:44:02;;;;;;;17.52;9.20;;;;;;;7.26;100.00;101983.09;5039416;28;20118;-74
2024/01/26 01:46:48;;;;;;;19.05;8.55;;;;;;;7.24;100.00;101990.16;5053758;28;21548;-74
2024/01/26 01:49:34;;;;;;;17.23;8.02;;;;;;;7.20;100.00;101986.69;5038570;28;20104;-76
2024/01/26 01:52:20;;;;;;;23.58;9.95;;;;;;;7.17;100.00;101979.69;5037960;28;20045;-75
2024/01/26 01:55:08;;;;;;;20.90;8.98;;;;;;;7.14;100.00;101963.06;5027210;28;20036;-75
2024/01/26 01:57:55;;;;;;;26.38;9.77;;;;;;;7.09;100.00;101957.84;5048015;28;20059;-75
2024/01/26 02:00:41;;;;;;;22.00;9.38;;;;;;;7.07;100.00;101954.34;5037736;28;20044;-75
2024/01/26 02:03:28;;;;;;;21.80;9.52;;;;;;;7.03;100.00;101969.31;5050128;28;20029;-74
2024/01/26 02:06:14;;;;;;;25.20;10.60;;;;;;;7.00;100.00;101960.59;5051500;28;20048;-75
2024/01/26 02:09:00;;;;;;;22.25;10.70;;;;;;;6.98;100.00;101957.09;5051324;28;20040;-74
2024/01/26 02:11:46;;;;;;;25.35;10.93;;;;;;;6.96;100.00;101941.31;5039853;28;20495;-77
2024/01/26 02:14:32;;;;;;;25.30;11.85;;;;;;;6.97;100.00;101931.66;5037865;28;20127;-74
2024/01/26 02:17:17;;;;;;;28.45;12.85;;;;;;;6.98;100.00;101933.41;5050812;28;20036;-75
2024/01/26 02:20:04;;;;;;;26.60;11.77;;;;;;;7.00;100.00;101926.34;5049845;28;20025;-75
2024/01/26 02:22:50;;;;;;;29.33;13.25;;;;;;;7.03;100.00;101914.00;5048868;28;20044;-75
2024/01/26 02:25:36;;;;;;;29.10;12.52;;;;;;;7.06;100.00;101900.81;5039391;28;20119;-75
2024/01/26 02:28:23;;;;;;;28.75;13.35;;;;;;;7.13;100.00;101903.38;5051100;28;20531;-75
2024/01/26 02:31:08;;;;;;;28.08;12.60;;;;;;;7.15;100.00;101902.44;5044004;28;21581;-75
2024/01/26 02:33:54;;;;;;;29.00;13.35;;;;;;;7.22;100.00;101883.91;5049679;28;20678;-75
2024/01/26 02:36:40;;;;;;;30.38;13.05;;;;;;;7.28;100.00;101881.19;5040984;28;21197;-75
2024/01/26 02:39:26;;;;;;;33.53;13.90;;;;;;;7.36;100.00;101873.19;5029834;28;20051;-75
2024/01/26 02:42:12;;;;;;;25.65;11.98;;;;;;;7.40;100.00;101861.72;5036524;28;20063;-75
2024/01/26 02:44:59;;;;;;;26.60;11.48;;;;;;;7.46;100.00;101864.22;5033052;28;20051;-76
2024/01/26 02:47:44;;;;;;;26.40;11.85;;;;;;;7.51;100.00;101853.63;5032905;28;20037;-75
2024/01/26 02:50:30;;;;;;;28.27;11.27;;;;;;;7.56;100.00;101854.41;5032252;28;20540;-76
2024/01/26 02:53:16;;;;;;;27.05;11.77;;;;;;;7.59;100.00;101849.09;5030778;28;20114;-75
2024/01/26 02:56:02;;;;;;;30.50;12.18;;;;;;;7.63;100.00;101850.75;5034661;28;20042;-76
2024/01/26 02:58:47;;;;;;;33.28;11.32;;;;;;;7.66;100.00;101847.22;5033328;28;20033;-76
2024/01/26 03:01:33;;;;;;;31.60;13.05;;;;;;;7.68;100.00;101848.94;5020305;28;20131;-76
2024/01/26 03:04:19;;;;;;;30.85;12.00;;;;;;;7.70;100.00;101825.19;5030850;28;20087;-76
2024/01/26 03:07:05;;;;;;;28.27;11.85;;;;;;;7.71;100.00;101827.81;5030407;28;20205;-76
2024/01/26 03:09:51;;;;;;;34.53;12.88;;;;;;;7.73;100.00;101810.19;5031748;28;20069;-76
2024/01/26 03:12:36;;;;;;;33.15;12.65;;;;;;;7.74;100.00;101805.78;5033376;28;20104;-76
2024/01/26 03:15:22;;;;;;;31.75;11.68;;;;;;;7.74;100.00;101788.19;5026466;28;20048;-75
2024/01/26 03:18:08;;;;;;;32.67;12.35;;;;;;;7.77;100.00;101778.47;5029760;28;20041;-76
2024/01/26 03:20:54;;;;;;;31.02;12.00;;;;;;;7.77;100.00;101786.38;5031523;28;20105;-75
2024/01/26 03:23:39;;;;;;;30.98;12.32;;;;;;;7.81;100.00;101773.16;5033224;28;20064;-75
2024/01/26 03:26:25;;;;;;;28.02;12.32;;;;;;;7.82;100.00;101766.09;5029010;28;20542;-75
2024/01/26 03:29:11;;;;;;;32.33;13.23;;;;;;;7.87;100.00;101769.50;5032203;28;20032;-76
2024/01/26 03:31:56;;;;;;;32.22;12.35;;;;;;;7.89;100.00;101751.88;5029574;28;20804;-75
2024/01/26 03:34:42;;;;;;;32.35;12.98;;;;;;;7.91;100.00;101749.22;5030380;28;20041;-75
2024/01/26 03:37:28;;;;;;;30.70;13.18;;;;;;;7.92;100.00;101725.47;5025991;28;20034;-74
2024/01/26 03:40:14;;;;;;;31.58;13.32;;;;;;;7.93;100.00;101737.75;5027547;28;20080;-75
2024/01/26 03:43:00;;;;;;;37.42;12.73;;;;;;;7.98;100.00;101716.56;5035234;28;20053;-74
2024/01/26 03:45:45;;;;;;;33.25;13.73;;;;;;;8.02;100.00;101712.97;5020611;28;20046;-75
2024/01/26 03:48:32;;;;;;;30.92;13.10;;;;;;;8.05;100.00;101709.41;5026814;28;20076;-75
2024/01/26 03:51:17;;;;;;;30.38;13.52;;;;;;;8.07;100.00;101697.03;5026692;28;20637;-75
2024/01/26 03:54:03;;;;;;;28.48;12.48;;;;;;;8.10;100.00;101696.97;5029279;28;20040;-75
2024/01/26 03:56:49;;;;;;;27.90;12.27;;;;;;;8.13;100.00;101681.09;5026471;28;20033;-75
2024/01/26 03:59:35;;;;;;;26.20;12.80;;;;;;;8.17;100.00;101692.44;5032402;28;20048;-75
2024/01/26 04:02:21;;;;;;;35.30;14.48;;;;;;;8.19;100.00;101694.16;5026453;28;20359;-75
2024/01/26 04:05:07;;;;;;;29.75;13.45;;;;;;;8.21;100.00;101683.53;5030769;28;20051;-75
2024/01/26 04:07:52;;;;;;;29.30;13.77;;;;;;;8.24;100.00;101683.50;5001788;28;20037;-75
2024/01/26 04:10:38;;;;;;;28.10;13.52;;;;;;;8.28;100.00;101682.50;5026537;28;20489;-76
2024/01/26 04:13:24;;;;;;;30.20;14.05;;;;;;;8.28;100.00;101675.47;5027987;28;21563;-75
2024/01/26 04:16:10;;;;;;;27.70;13.15;;;;;;;8.32;100.00;101668.34;5011627;28;20124;-75
2024/01/26 04:18:58;;;;;;;29.15;13.25;;;;;;;8.36;100.00;101653.31;5029851;28;20041;-76
2024/01/26 04:21:44;;;;;;;27.70;13.18;;;;;;;8.40;100.00;101652.34;5028485;28;20041;-76
2024/01/26 04:24:30;;;;;;;30.60;13.07;;;;;;;8.42;100.00;101645.25;5029043;28;20110;-73
2024/01/26 04:27:15;;;;;;;26.08;12.30;;;;;;;8.44;100.00;101630.25;5030039;28;20041;-75
2024/01/26 04:30:03;;;;;;;27.05;12.93;;;;;;;8.47;100.00;101630.19;5020586;28;20041;-75
2024/01/26 04:32:48;;;;;;;23.58;11.60;;;;;;;8.50;100.00;101631.88;5028994;28;20481;-75
2024/01/26 04:35:34;;;;;;;27.02;12.52;;;;;;;8.55;100.00;101611.53;5029820;28;20032;-74
2024/01/26 04:38:20;;;;;;;23.33;11.32;;;;;;;8.57;100.00;101612.38;5029671;28;20040;-75
2024/01/26 04:41:06;;;;;;;24.90;12.02;;;;;;;8.60;100.00;101608.81;5036328;28;20135;-75
2024/01/26 04:43:52;;;;;;;26.83;11.25;;;;;;;8.60;100.00;101603.53;5030826;28;20095;-75
2024/01/26 04:46:38;;;;;;;27.23;12.32;;;;;;;8.61;100.00;101589.41;5054508;28;20066;-74
2024/01/26 04:49:24;;;;;;;21.55;11.18;;;;;;;8.61;100.00;101563.03;5039789;28;20033;-74
2024/01/26 04:52:10;;;;;;;26.02;11.82;;;;;;;8.62;100.00;101577.94;5052026;28;20041;-75
2024/01/26 04:54:55;;;;;;;30.90;13.15;;;;;;;8.62;100.00;101577.94;5055921;28;20119;-74
2024/01/26 04:57:42;;;;;;;29.70;13.55;;;;;;;8.62;100.00;101562.13;5036795;28;20071;-74
2024/01/26 05:00:30;;;;;;;28.65;13.60;;;;;;;8.63;100.00;101577.03;5049089;28;20118;-74
2024/01/26 05:03:15;;;;;;;22.85;10.93;;;;;;;8.60;100.00;101556.03;5040515;28;20044;-74
2024/01/26 05:06:01;;;;;;;25.63;11.90;;;;;;;8.60;100.00;101563.94;5054090;28;20043;-75
2024/01/26 05:08:47;;;;;;;24.67;12.35;;;;;;;8.58;100.00;101537.56;5038793;28;20037;-75
2024/01/26 05:11:33;;;;;;;22.52;10.73;;;;;;;8.58;100.00;101544.59;5051743;28;20132;-75
2024/01/26 05:14:21;;;;;;;24.38;11.38;;;;;;;8.55;100.00;101535.88;5056206;28;20095;-74
2024/01/26 05:17:06;;;;;;;18.90;11.00;;;;;;;8.52;100.00;101522.78;5040480;28;20047;-75
2024/01/26 05:19:52;;;;;;;22.42;11.10;;;;;;;8.51;100.00;101518.38;5056261;28;20141;-75
2024/01/26 05:22:38;;;;;;;21.17;11.52;;;;;;;8.50;100.00;101502.56;5054772;28;20074;-75
2024/01/26 05:25:24;;;;;;;21.38;11.48;;;;;;;8.48;100.00;101501.72;5051298;28;20447;-74
2024/01/26 05:28:10;;;;;;;22.73;11.05;;;;;;;8.49;100.00;101506.97;5036233;28;20047;-74
2024/01/26 05:30:55;;;;;;;22.05;11.15;;;;;;;8.51;100.00;101507.81;5024020;28;20128;-74
2024/01/26 05:33:41;;;;;;;19.50;10.45;;;;;;;8.53;100.00;101494.59;5050907;28;20045;-73
2024/01/26 05:36:27;;;;;;;22.20;11.80;;;;;;;8.56;100.00;101482.19;5049965;28;20037;-73
2024/01/26 05:39:13;;;;;;;21.80;10.88;;;;;;;8.55;100.00;101472.53;5053534;28;20044;-73
2024/01/26 05:41:58;;;;;;;22.20;10.63;;;;;;;8.58;100.00;101471.59;5050077;28;20044;-73
2024/01/26 05:44:44;;;;;;;25.30;12.55;;;;;;;8.58;100.00;101466.31;5049140;28;20044;-73
2024/01/26 05:47:30;;;;;;;23.25;12.13;;;;;;;8.60;100.00;101455.72;5041558;28;20047;-74
2024/01/26 05:50:15;;;;;;;20.98;12.00;;;;;;;8.61;100.00;101437.19;5052545;28;20040;-73
2024/01/26 05:53:02;;;;;;;23.20;11.70;;;;;;;8.64;100.00;101446.78;5050775;28;20045;-74
2024/01/26 05:55:48;;;;;;;20.67;11.35;;;;;;;8.65;100.00;101452.03;5048463;28;20086;-74
2024/01/26 05:58:33;;;;;;;24.05;12.32;;;;;;;8.68;100.00;101445.81;5051355;28;20051;-74
2024/01/26 06:01:19;;;;;;;21.35;11.52;;;;;;;8.69;100.00;101452.81;5053089;28;20044;-74
2024/01/26 06:04:05;;;;;;;20.10;11.50;;;;;;;8.71;100.00;101456.25;5049447;28;20051;-74
2024/01/26 06:06:51;;;;;;;22.48;12.13;;;;;;;8.69;100.00;101456.34;5051350;28;20080;-74
2024/01/26 06:09:36;;;;;;;21.05;12.00;;;;;;;8.69;100.00;101464.25;5033160;28;20051;-74
2024/01/26 06:12:22;;;;;;;21.55;11.27;;;;;;;8.68;100.00;101470.41;5030676;28;20128;-74
2024/01/26 06:15:11;;;;;;;20.73;11.07;;;;;;;8.67;100.00;101454.63;5046093;28;20040;-74
2024/01/26 06:17:58;;;;;;;20.33;11.15;;;;;;;8.65;100.00;101452.03;5042070;28;20040;-74
2024/01/26 06:20:44;;;;;;;21.23;11.55;;;;;;;8.65;100.00;101435.31;5042489;28;20212;-73
2024/01/26 06:23:30;;;;;;;20.48;10.98;;;;;;;8.63;100.00;101434.50;5047314;28;20166;-73
2024/01/26 06:26:16;;;;;;;18.55;10.48;;;;;;;8.61;100.00;101444.25;5034554;28;20043;-73
2024/01/26 06:29:03;;;;;;;22.13;12.02;;;;;;;8.64;100.00;101433.59;5046749;28;20037;-73
2024/01/26 06:31:49;;;;;;;23.80;11.40;;;;;;;8.62;100.00;101433.66;5046635;28;20032;-74
2024/01/26 06:34:37;;;;;;;22.02;10.48;;;;;;;8.62;100.00;101424.84;5046310;28;20078;-73
2024/01/26 06:37:23;;;;;;;21.90;10.90;;;;;;;8.61;100.00;101433.69;5046541;28;20044;-74
2024/01/26 06:40:12;;;;;;;22.88;11.20;;;;;;;8.59;100.00;101427.56;5031624;28;20378;-75
2024/01/26 06:43:02;;;;;;;20.02;10.73;;;;;;;8.56;100.00;101420.63;5031432;28;20114;-75
2024/01/26 06:45:48;;;;;;;20.45;10.68;;;;;;;8.53;100.00;101432.13;5045704;28;20037;-75
2024/01/26 06:48:34;;;;;;;19.65;9.95;;;;;;;8.51;100.00;101428.66;5047184;28;20057;-76
2024/01/26 06:51:19;;;;;;;20.85;10.82;;;;;;;8.51;100.00;101401.38;5029890;28;20044;-75
2024/01/26 06:54:05;;;;;;;20.45;10.80;;;;;;;8.47;100.00;101411.16;5047532;28;20058;-77
2024/01/26 06:56:51;;;;;;;20.67;10.48;;;;;;;8.46;100.00;101422.63;5045458;28;20036;-76
2024/01/26 06:59:38;;;;;;;18.92;9.63;;;;;;;8.45;100.00;101415.63;5028571;28;20052;-75
2024/01/26 07:02:24;;;;;;;17.50;9.05;;;;;;;8.42;100.00;101419.19;5046711;28;20274;-75
2024/01/26 07:05:10;;;;;;;17.50;9.43;;;;;;;8.41;100.00;101422.72;5052813;28;20032;-75
2024/01/26 07:07:56;;;;;;;17.13;9.05;;;;;;;8.40;100.00;101425.41;5035635;28;20040;-75
2024/01/26 07:10:42;;;;;;;16.63;8.73;;;;;;;8.38;100.00;101443.03;5033918;28;20029;-75
2024/01/26 07:13:28;;;;;;;14.45;7.88;;;;;;;8.35;100.00;101428.19;5023577;28;20043;-76
2024/01/26 07:16:13;;;;;;;15.75;8.48;;;;;;;8.33;100.00;101435.25;5048872;28;20044;-75
2024/01/26 07:18:59;;;;;;;14.23;7.75;;;;;;;8.31;100.00;101428.28;5047446;28;20536;-74
2024/01/26 07:21:45;;;;;;;14.60;7.63;;;;;;;8.27;100.00;101428.38;5047925;28;20043;-74
2024/01/26 07:24:31;;;;;;;17.13;8.40;;;;;;;8.26;100.00;101429.28;5034883;28;20514;-74
2024/01/26 07:27:19;;;;;;;15.43;8.43;;;;;;;8.25;100.00;101426.69;5047594;28;21942;-74
2024/01/26 07:30:08;;;;;;;15.95;8.02;;;;;;;8.24;100.00;101431.09;5056141;28;20045;-75
2024/01/26 07:32:53;;;;;;;17.92;8.07;;;;;;;8.25;100.00;101438.13;5037174;28;20048;-75
2024/01/26 07:35:39;;;;;;;13.98;7.75;;;;;;;8.26;100.00;101433.69;5050203;28;20118;-75
2024/01/26 07:38:25;;;;;;;14.52;8.60;;;;;;;8.27;100.00;101431.03;5022713;28;20087;-74
2024/01/26 07:41:11;;;;;;;15.07;8.15;;;;;;;8.31;100.00;101423.00;5034297;28;20049;-73
2024/01/26 07:43:56;;;;;;;14.75;8.38;;;;;;;8.34;100.00;101426.44;5035198;28;20036;-74
2024/01/26 07:46:42;;;;;;;15.68;8.25;;;;;;;8.37;100.00;101420.22;5026427;28;20037;-74
2024/01/26 07:49:28;;;;;;;15.70;8.43;;;;;;;8.39;100.00;101413.13;5051215;28;20037;-74
2024/01/26 07:52:17;;;;;;;15.10;8.27;;;;;;;8.41;100.00;101417.44;5032762;28;20052;-74
2024/01/26 07:55:03;;;;;;;15.15;8.05;;;;;;;8.40;100.00;101421.00;5052678;28;20037;-74
2024/01/26 07:57:49;;;;;;;14.25;7.40;;;;;;;8.44;100.00;101413.84;5049240;28;20588;-74
2024/01/26 08:00:34;;;;;;;14.95;6.75;;;;;;;8.54;100.00;101411.88;5048184;28;20479;-75
2024/01/26 08:03:20;;;;;;;13.23;6.30;;;;;;;8.66;100.00;101416.81;5037385;28;20131;-74
2024/01/26 08:06:07;;;;;;;12.85;5.68;;;;;;;8.74;100.00;101413.97;5034577;28;20044;-74
2024/01/26 08:08:52;;;;;;;11.52;6.03;;;;;;;8.82;100.00;101416.34;5036211;28;20094;-73
2024/01/26 08:11:38;;;;;;;11.93;4.75;;;;;;;8.85;100.00;101413.66;5050069;28;20056;-73
2024/01/26 08:14:24;;;;;;;10.90;5.15;;;;;;;8.87;100.00;101425.00;5050457;28;20040;-74
2024/01/26 08:17:10;;;;;;;10.25;4.75;;;;;;;8.89;100.00;101411.78;5046927;28;20112;-74
2024/01/26 08:19:58;;;;;;;15.65;5.07;;;;;;;8.89;100.00;101417.91;5051918;28;20032;-73
2024/01/26 08:22:44;;;;;;;10.63;5.15;;;;;;;8.87;100.00;101417.09;5041148;28;20051;-75
2024/01/26 08:25:29;;;;;;;11.75;4.75;;;;;;;8.87;100.00;101424.16;5039984;28;20167;-74
2024/01/26 08:28:16;;;;;;;10.23;4.63;;;;;;;8.85;100.00;101433.88;5043715;28;20099;-74
2024/01/26 08:31:01;;;;;;;11.25;4.72;;;;;;;8.84;100.00;101404.00;5045009;28;20118;-73
2024/01/26 08:33:47;;;;;;;13.93;4.03;;;;;;;8.84;100.00;101409.28;5052521;28;20105;-73
2024/01/26 08:36:33;;;;;;;11.23;4.72;;;;;;;8.83;100.00;101418.97;5051543;28;20112;-74
2024/01/26 08:39:19;;;;;;;11.75;3.90;;;;;;;8.85;100.00;101416.28;5059729;28;20103;-72
2024/01/26 08:42:05;;;;;;;14.82;4.18;;;;;;;8.86;100.00;101427.69;5054245;28;20179;-75
2024/01/26 08:44:54;;;;;;;7.38;3.33;;;;;;;8.86;100.00;101433.84;5054490;28;20068;-73
2024/01/26 08:47:40;;;;;;;10.20;3.42;;;;;;;8.88;100.00;101462.88;5042590;28;20037;-74
2024/01/26 08:50:26;;;;;;;11.90;3.28;;;;;;;8.83;100.00;101503.47;5039052;28;20067;-72
2024/01/26 08:53:12;;;;;;;8.80;2.05;;;;;;;8.53;100.00;101540.34;5046800;28;20075;-73
2024/01/26 08:55:57;;;;;;;4.05;1.33;;;;;;;8.22;100.00;101517.31;5026092;28;20029;-71
2024/01/26 08:58:43;;;;;;;9.35;1.48;;;;;;;7.97;100.00;101517.94;5032570;28;20449;-72
2024/01/26 09:01:29;;;;;;;5.68;1.40;;;;;;;7.79;100.00;101519.19;5034393;28;20048;-72
2024/01/26 09:04:14;;;;;;;5.93;1.50;;;;;;;7.65;100.00;101516.03;5048533;28;20127;-73
2024/01/26 09:07:00;;;;;;;4.75;1.40;;;;;;;7.56;100.00;101522.34;5047754;28;20112;-72
2024/01/26 09:09:46;;;;;;;6.38;1.90;;;;;;;7.50;100.00;101538.28;5045066;28;20037;-73
2024/01/26 09:12:35;;;;;;;6.93;1.05;;;;;;;7.39;100.00;101536.78;5049158;28;20076;-72
2024/01/26 09:15:21;;;;;;;4.93;1.27;;;;;;;7.31;100.00;101552.72;5032136;28;20043;-74
2024/01/26 09:18:07;;;;;;;7.50;1.52;;;;;;;7.26;100.00;101546.72;5038171;28;20040;-73
2024/01/26 09:20:52;;;;;;;7.07;1.60;;;;;;;7.20;100.00;101568.75;5051524;28;20598;-75
2024/01/26 09:23:39;;;;;;;8.45;1.40;;;;;;;7.15;100.00;101582.91;5045814;28;20781;-75
2024/01/26 09:26:25;;;;;;;13.40;1.60;;;;;;;7.09;100.00;101627.78;5052718;28;20040;-75
2024/01/26 09:29:10;;;;;;;5.82;1.10;;;;;;;7.05;100.00;101642.78;5050838;28;20151;-75
2024/01/26 09:31:57;;;;;;;11.70;1.60;;;;;;;7.02;100.00;101658.63;5038489;28;20395;-75
2024/01/26 09:34:44;;;;;;;8.35;1.30;;;;;;;7.01;100.00;101660.41;5053761;28;20048;-74
2024/01/26 09:37:29;;;;;;;8.75;1.50;;;;;;;7.01;100.00;101654.25;5039915;28;20522;-74
2024/01/26 09:40:15;;;;;;;4.22;1.40;;;;;;;6.99;100.00;101646.41;5054854;28;20045;-74
2024/01/26 09:43:01;;;;;;;11.63;1.45;;;;;;;6.98;100.00;101657.81;5039252;28;20060;-74
2024/01/26 09:45:50;;;;;;;8.85;1.40;;;;;;;6.98;100.00;101667.47;5054634;28;20043;-73
2024/01/26 09:48:39;;;;;;;10.60;1.88;;;;;;;6.99;100.00;101679.75;5055912;28;20056;-73
2024/01/26 09:51:29;;;;;;;10.52;1.83;;;;;;;7.00;100.00;101671.81;5039851;28;20033;-73
2024/01/26 09:54:15;;;;;;;10.02;1.63;;;;;;;6.99;100.00;101678.00;5052567;28;20442;-74
2024/01/26 09:57:01;;;;;;;7.20;1.98;;;;;;;6.98;100.00;101672.75;5050746;28;20033;-74
2024/01/26 09:59:50;;;;;;;6.25;1.50;;;;;;;6.95;100.00;101683.31;5037920;28;20033;-75
2024/01/26 10:02:37;;;;;;;10.40;1.77;;;;;;;6.92;100.00;101686.91;5050680;28;20079;-75
2024/01/26 10:05:23;;;;;;;10.45;1.50;;;;;;;6.94;100.00;101716.69;5040532;28;20091;-73
2024/01/26 10:08:10;;;;;;;8.77;1.73;;;;;;;6.95;100.00;101726.31;5053082;28;20774;-74
2024/01/26 10:10:55;;;;;;;7.70;1.73;;;;;;;6.97;100.00;101740.31;5042945;28;20435;-71
2024/01/26 10:13:42;;;;;;;12.32;2.35;;;;;;;6.95;100.00;101752.66;5037827;28;20040;-74
2024/01/26 10:16:28;;;;;;;5.57;1.42;;;;;;;6.93;100.00;101754.44;5054337;28;20052;-73
2024/01/26 10:19:20;;;;;;;7.88;1.77;;;;;;;6.89;100.00;101764.16;5056673;28;20070;-73
2024/01/26 10:22:07;;;;;;;17.52;2.45;;;;;;;6.88;100.00;101775.59;5040749;28;20033;-74
2024/01/26 10:24:53;;;;;;;11.52;1.70;;;;;;;6.84;100.00;101784.41;5046235;28;20114;-74
2024/01/26 10:27:39;;;;;;;12.93;2.08;;;;;;;6.78;100.00;101808.19;5052809;28;20041;-73
2024/01/26 10:30:25;;;;;;;8.38;1.80;;;;;;;6.73;100.00;101783.69;5054414;28;20032;-71
2024/01/26 10:33:12;;;;;;;6.55;1.50;;;;;;;6.69;100.00;101755.69;5054158;28;20800;-75
2024/01/26 10:36:00;;;;;;;11.30;1.80;;;;;;;6.67;100.00;101805.69;5038984;28;20058;-73
2024/01/26 10:38:46;;;;;;;6.85;1.50;;;;;;;6.70;100.00;101820.59;5040122;28;20067;-76
2024/01/26 10:41:37;;;;;;;14.30;2.30;;;;;;;6.72;100.00;101824.06;5053746;28;20049;-76
2024/01/26 10:44:23;;;;;;;18.50;2.28;;;;;;;6.73;100.00;101825.78;5039759;28;20063;-75
2024/01/26 10:47:12;;;;;;;7.22;1.90;;;;;;;6.71;100.00;101838.09;5036550;28;20496;-75
2024/01/26 10:49:59;;;;;;;6.20;1.52;;;;;;;6.70;100.00;101858.28;5054811;28;20272;-73
2024/01/26 10:52:48;;;;;;;6.10;1.30;;;;;;;6.71;100.00;101859.16;5055258;28;20041;-73
2024/01/26 10:55:35;;;;;;;6.53;1.77;;;;;;;6.71;100.00;101859.16;5040564;28;20044;-72
2024/01/26 10:58:21;;;;;;;10.77;2.50;;;;;;;6.68;100.00;101865.34;5053599;28;20047;-74
2024/01/26 11:01:07;;;;;;;13.93;1.90;;;;;;;6.68;100.00;101872.34;5053921;28;20768;-72
2024/01/26 11:03:55;;;;;;;13.70;2.13;;;;;;;6.65;100.00;101876.75;5053292;28;20036;-74
2024/01/26 11:06:41;;;;;;;9.25;1.75;;;;;;;6.64;100.00;101882.94;5053953;28;20047;-74
2024/01/26 11:09:32;;;;;;;11.63;2.22;;;;;;;6.65;100.00;101889.94;5050679;28;20053;-75
2024/01/26 11:12:25;;;;;;;7.88;2.08;;;;;;;6.65;100.00;101899.59;5039536;28;20109;-73
2024/01/26 11:15:15;;;;;;;9.73;1.77;;;;;;;6.68;100.00;101907.44;5023757;28;20541;-74
2024/01/26 11:18:03;;;;;;;11.23;2.53;;;;;;;6.66;100.00;101903.97;5048040;28;20094;-76
2024/01/26 11:20:49;;;;;;;8.57;2.30;;;;;;;6.69;100.00;101935.50;5045652;28;20036;-75
2024/01/26 11:23:40;;;;;;;13.95;2.30;;;;;;;6.69;100.00;101934.66;5049457;28;20051;-76
2024/01/26 11:26:26;;;;;;;10.75;2.42;;;;;;;6.68;100.00;101941.66;5050865;28;20590;-75
2024/01/26 11:29:13;;;;;;;11.45;1.70;;;;;;;6.68;100.00;101948.66;5046671;28;20127;-74
2024/01/26 11:32:16;;;;;;;10.70;2.17;;;;;;;6.66;100.00;101954.81;5036589;28;20043;-75
2024/01/26 11:35:03;;;;;;;14.80;2.27;;;;;;;6.64;100.00;101974.16;5051117;28;20029;-75
2024/01/26 11:37:53;;;;;;;13.98;2.15;;;;;;;6.58;100.00;101972.47;5053961;28;20033;-75
2024/01/26 11:40:40;;;;;;;11.93;2.20;;;;;;;6.56;100.00;101969.00;5040861;28;20036;-75
2024/01/26 11:43:27;;;;;;;9.13;2.08;;;;;;;6.54;100.00;101973.38;5052145;28;20171;-75
2024/01/26 11:46:13;;;;;;;6.97;1.80;;;;;;;6.53;100.00;101990.06;5037452;28;20036;-74
2024/01/26 11:48:59;;;;;;;19.90;2.63;;;;;;;6.51;100.00;102007.63;5049961;28;20305;-75
2024/01/26 11:51:45;;;;;;;15.57;2.45;;;;;;;6.50;100.00;102013.78;5038134;28;20094;-75
2024/01/26 11:54:34;;;;;;;14.00;2.63;;;;;;;6.50;100.00;102013.78;5037493;28;20044;-75
2024/01/26 11:57:20;;;;;;;12.60;2.33;;;;;;;6.50;100.00;102025.16;5019327;28;20571;-76
2024/01/26 12:00:09;;;;;;;9.35;2.22;;;;;;;6.50;100.00;102033.03;5050865;28;20044;-76
2024/01/26 12:02:56;;;;;;;10.30;2.45;;;;;;;6.47;100.00;102026.94;5037444;28;20105;-76
2024/01/26 12:05:41;;;;;;;7.63;1.83;;;;;;;6.45;100.00;102026.09;5049820;28;20037;-74
2024/01/26 12:08:30;;;;;;;12.60;2.38;;;;;;;6.47;100.00;102038.34;5035688;28;20041;-75
2024/01/26 12:11:17;;;;;;;11.68;1.83;;;;;;;6.50;100.00;102056.72;5021737;28;22048;-75
2024/01/26 12:14:03;;;;;;;13.10;1.95;;;;;;;6.52;100.00;102077.78;5038432;28;20902;-76
2024/01/26 12:16:49;;;;;;;8.05;2.00;;;;;;;6.51;100.00;102076.03;5037647;28;20068;-75
2024/01/26 12:19:37;;;;;;;15.95;2.20;;;;;;;6.54;100.00;102083.03;5052283;28;20110;-76
2024/01/26 12:22:25;;;;;;;13.90;2.47;;;;;;;6.55;100.00;102079.50;5051356;28;20052;-74
2024/01/26 12:25:17;;;;;;;13.30;2.15;;;;;;;6.54;100.00;102112.81;5051405;28;20099;-73
2024/01/26 12:28:05;;;;;;;14.70;2.22;;;;;;;6.51;100.00;102133.91;5038764;28;20045;-75
2024/01/26 12:30:51;;;;;;;7.63;1.70;;;;;;;6.31;100.00;102168.28;5036465;28;20116;-75
2024/01/26 12:33:37;;;;;;;6.38;1.50;;;;;;;5.93;100.00;102181.56;5048967;28;20522;-72
2024/01/26 12:36:31;;;;;;;4.80;1.70;;;;;;;5.67;100.00;102166.78;5036771;28;20044;-74
2024/01/26 12:39:17;;;;;;;;;;;;;;;5.51;100.00;102184.34;5038211;28;20078;-73
2024/01/26 12:42:03;;;;;;;5.93;1.23;;;;;;;5.38;100.00;102198.38;5034001;28;19928;-72
2024/01/26 12:44:52;;;;;;;8.60;1.45;;;;;;;5.35;100.00;102214.16;5038438;28;20051;-72